sensor_id;sensor_type;location;lat;lon;timestamp;P1;durP1;ratioP1;P2;durP2;ratioP2
7529;SDS011;3806;52.270;10.544;2022-09-20T00:01:10;3.33;;;1.30;;
7529;SDS011;3806;52.270;10.544;2022-09-20T00:03:44;5.50;;;1.27;;
7529;SDS011;3806;52.270;10.544;2022-09-20T00:06:12;5.60;;;1.42;;
7529;SDS011;3806;52.270;10.544;2022-09-20T00:08:40;5.78;;;1.17;;
7529;SDS011;3806;52.270;10.544;2022-09-20T00:11:07;6.95;;;1.30;;
7529;SDS011;3806;52.270;10.544;2022-09-20T00:13:35;2.78;;;1.60;;
7529;SDS011;3806;52.270;10.544;2022-09-20T00:16:06;6.22;;;1.52;;
7529;SDS011;3806;52.270;10.544;2022-09-20T00:18:35;4.60;;;1.45;;
7529;SDS011;3806;52.270;10.544;2022-09-20T00:21:01;7.80;;;1.52;;
7529;SDS011;3806;52.270;10.544;2022-09-20T00:23:28;8.80;;;1.63;;
7529;SDS011;3806;52.270;10.544;2022-09-20T00:26:00;3.00;;;1.23;;
7529;SDS011;3806;52.270;10.544;2022-09-20T00:28:27;3.67;;;1.13;;
7529;SDS011;3806;52.270;10.544;2022-09-20T00:30:54;9.93;;;1.55;;
7529;SDS011;3806;52.270;10.544;2022-09-20T00:33:21;2.15;;;1.27;;
7529;SDS011;3806;52.270;10.544;2022-09-20T00:35:48;4.88;;;1.50;;
7529;SDS011;3806;52.270;10.544;2022-09-20T00:38:14;6.15;;;1.73;;
7529;SDS011;3806;52.270;10.544;2022-09-20T00:40:41;5.38;;;1.30;;
7529;SDS011;3806;52.270;10.544;2022-09-20T00:43:33;6.35;;;1.70;;
7529;SDS011;3806;52.270;10.544;2022-09-20T00:46:05;4.43;;;1.33;;
7529;SDS011;3806;52.270;10.544;2022-09-20T00:48:53;6.00;;;1.50;;
7529;SDS011;3806;52.270;10.544;2022-09-20T00:51:27;2.80;;;1.17;;
7529;SDS011;3806;52.270;10.544;2022-09-20T00:53:55;4.18;;;1.85;;
7529;SDS011;3806;52.270;10.544;2022-09-20T00:56:25;7.95;;;1.55;;
7529;SDS011;3806;52.270;10.544;2022-09-20T00:58:57;5.20;;;1.45;;
7529;SDS011;3806;52.270;10.544;2022-09-20T01:01:38;3.65;;;1.30;;
7529;SDS011;3806;52.270;10.544;2022-09-20T01:04:04;6.40;;;1.40;;
7529;SDS011;3806;52.270;10.544;2022-09-20T01:06:30;5.63;;;1.23;;
7529;SDS011;3806;52.270;10.544;2022-09-20T01:08:57;6.50;;;1.88;;
7529;SDS011;3806;52.270;10.544;2022-09-20T01:11:26;6.15;;;1.40;;
7529;SDS011;3806;52.270;10.544;2022-09-20T01:13:54;2.45;;;1.40;;
7529;SDS011;3806;52.270;10.544;2022-09-20T01:16:19;8.38;;;2.38;;
7529;SDS011;3806;52.270;10.544;2022-09-20T01:18:46;5.35;;;1.75;;
7529;SDS011;3806;52.270;10.544;2022-09-20T01:21:13;3.25;;;1.30;;
7529;SDS011;3806;52.270;10.544;2022-09-20T01:29:36;5.90;;;2.08;;
7529;SDS011;3806;52.270;10.544;2022-09-20T01:32:18;5.95;;;1.80;;
7529;SDS011;3806;52.270;10.544;2022-09-20T01:34:50;3.55;;;2.60;;
7529;SDS011;3806;52.270;10.544;2022-09-20T01:37:23;8.63;;;1.63;;
7529;SDS011;3806;52.270;10.544;2022-09-20T01:42:16;3.20;;;1.23;;
7529;SDS011;3806;52.270;10.544;2022-09-20T01:53:02;2.83;;;1.20;;
7529;SDS011;3806;52.270;10.544;2022-09-20T02:15:13;5.50;;;1.77;;
7529;SDS011;3806;52.270;10.544;2022-09-20T02:21:03;5.55;;;3.13;;
7529;SDS011;3806;52.270;10.544;2022-09-20T02:24:02;5.72;;;2.58;;
7529;SDS011;3806;52.270;10.544;2022-09-20T02:26:49;5.13;;;3.15;;
7529;SDS011;3806;52.270;10.544;2022-09-20T02:29:31;6.95;;;2.83;;
7529;SDS011;3806;52.270;10.544;2022-09-20T02:34:43;8.30;;;2.92;;
7529;SDS011;3806;52.270;10.544;2022-09-20T02:40:23;8.38;;;3.42;;
7529;SDS011;3806;52.270;10.544;2022-09-20T02:51:40;7.63;;;3.72;;
7529;SDS011;3806;52.270;10.544;2022-09-20T02:56:57;10.57;;;4.32;;
7529;SDS011;3806;52.270;10.544;2022-09-20T02:59:34;10.60;;;4.53;;
7529;SDS011;3806;52.270;10.544;2022-09-20T03:10:50;7.75;;;4.10;;
7529;SDS011;3806;52.270;10.544;2022-09-20T03:16:33;12.02;;;4.45;;
7529;SDS011;3806;52.270;10.544;2022-09-20T03:25:03;14.25;;;5.50;;
7529;SDS011;3806;52.270;10.544;2022-09-20T03:27:38;10.32;;;4.20;;
7529;SDS011;3806;52.270;10.544;2022-09-20T03:35:42;10.80;;;5.10;;
7529;SDS011;3806;52.270;10.544;2022-09-20T03:47:17;9.60;;;5.18;;
7529;SDS011;3806;52.270;10.544;2022-09-20T03:58:22;10.55;;;4.90;;
7529;SDS011;3806;52.270;10.544;2022-09-20T04:01:25;9.05;;;5.15;;
7529;SDS011;3806;52.270;10.544;2022-09-20T04:07:10;14.93;;;5.60;;
7529;SDS011;3806;52.270;10.544;2022-09-20T04:09:48;11.77;;;5.10;;
7529;SDS011;3806;52.270;10.544;2022-09-20T04:18:50;12.73;;;5.55;;
7529;SDS011;3806;52.270;10.544;2022-09-20T04:29:33;15.82;;;6.28;;
7529;SDS011;3806;52.270;10.544;2022-09-20T04:32:15;13.95;;;5.82;;
7529;SDS011;3806;52.270;10.544;2022-09-20T04:37:54;14.75;;;7.00;;
7529;SDS011;3806;52.270;10.544;2022-09-20T04:43:31;15.35;;;7.15;;
7529;SDS011;3806;52.270;10.544;2022-09-20T05:02:48;11.50;;;5.70;;
7529;SDS011;3806;52.270;10.544;2022-09-20T05:08:15;10.30;;;5.38;;
7529;SDS011;3806;52.270;10.544;2022-09-20T05:14:02;9.25;;;6.18;;
7529;SDS011;3806;52.270;10.544;2022-09-20T05:19:36;16.13;;;5.32;;
7529;SDS011;3806;52.270;10.544;2022-09-20T05:27:50;14.77;;;6.63;;
7529;SDS011;3806;52.270;10.544;2022-09-20T05:30:33;12.27;;;6.00;;
7529;SDS011;3806;52.270;10.544;2022-09-20T05:36:03;12.98;;;5.88;;
7529;SDS011;3806;52.270;10.544;2022-09-20T05:38:48;12.60;;;5.78;;
7529;SDS011;3806;52.270;10.544;2022-09-20T05:41:35;22.17;;;6.78;;
7529;SDS011;3806;52.270;10.544;2022-09-20T05:44:10;19.65;;;7.40;;
7529;SDS011;3806;52.270;10.544;2022-09-20T05:47:02;15.70;;;8.27;;
7529;SDS011;3806;52.270;10.544;2022-09-20T05:55:38;25.42;;;7.88;;
7529;SDS011;3806;52.270;10.544;2022-09-20T06:01:03;19.60;;;7.70;;
7529;SDS011;3806;52.270;10.544;2022-09-20T06:03:51;15.25;;;8.15;;
7529;SDS011;3806;52.270;10.544;2022-09-20T06:06:28;20.58;;;7.57;;
7529;SDS011;3806;52.270;10.544;2022-09-20T06:15:17;17.67;;;7.85;;
7529;SDS011;3806;52.270;10.544;2022-09-20T06:23:46;14.77;;;6.30;;
7529;SDS011;3806;52.270;10.544;2022-09-20T06:26:20;15.05;;;6.68;;
7529;SDS011;3806;52.270;10.544;2022-09-20T06:28:50;16.55;;;6.45;;
7529;SDS011;3806;52.270;10.544;2022-09-20T06:31:19;14.93;;;6.57;;
7529;SDS011;3806;52.270;10.544;2022-09-20T06:33:49;14.88;;;7.20;;
7529;SDS011;3806;52.270;10.544;2022-09-20T06:36:27;17.13;;;7.30;;
7529;SDS011;3806;52.270;10.544;2022-09-20T06:42:10;13.50;;;6.25;;
7529;SDS011;3806;52.270;10.544;2022-09-20T06:44:36;19.40;;;8.23;;
7529;SDS011;3806;52.270;10.544;2022-09-20T06:47:10;10.70;;;7.10;;
7529;SDS011;3806;52.270;10.544;2022-09-20T06:49:37;19.02;;;6.53;;
7529;SDS011;3806;52.270;10.544;2022-09-20T06:52:05;12.93;;;5.47;;
7529;SDS011;3806;52.270;10.544;2022-09-20T06:54:38;14.18;;;5.78;;
7529;SDS011;3806;52.270;10.544;2022-09-20T06:57:09;15.27;;;6.65;;
7529;SDS011;3806;52.270;10.544;2022-09-20T06:59:40;16.98;;;7.07;;
7529;SDS011;3806;52.270;10.544;2022-09-20T07:02:06;11.10;;;5.35;;
7529;SDS011;3806;52.270;10.544;2022-09-20T07:04:32;14.48;;;6.25;;
7529;SDS011;3806;52.270;10.544;2022-09-20T07:06:59;11.68;;;5.65;;
7529;SDS011;3806;52.270;10.544;2022-09-20T07:09:25;11.43;;;6.10;;
7529;SDS011;3806;52.270;10.544;2022-09-20T07:11:51;10.88;;;5.13;;
7529;SDS011;3806;52.270;10.544;2022-09-20T07:14:16;13.25;;;6.30;;
7529;SDS011;3806;52.270;10.544;2022-09-20T07:16:43;10.25;;;5.93;;
7529;SDS011;3806;52.270;10.544;2022-09-20T07:19:08;11.30;;;5.03;;
7529;SDS011;3806;52.270;10.544;2022-09-20T07:21:34;9.63;;;5.57;;
7529;SDS011;3806;52.270;10.544;2022-09-20T07:23:59;14.68;;;5.47;;
7529;SDS011;3806;52.270;10.544;2022-09-20T07:26:26;14.40;;;6.88;;
7529;SDS011;3806;52.270;10.544;2022-09-20T07:28:54;10.57;;;6.13;;
7529;SDS011;3806;52.270;10.544;2022-09-20T07:31:22;12.45;;;6.32;;
7529;SDS011;3806;52.270;10.544;2022-09-20T07:33:49;11.30;;;5.75;;
7529;SDS011;3806;52.270;10.544;2022-09-20T07:36:15;9.90;;;5.28;;
7529;SDS011;3806;52.270;10.544;2022-09-20T07:38:41;13.98;;;5.60;;
7529;SDS011;3806;52.270;10.544;2022-09-20T07:41:10;9.80;;;4.57;;
7529;SDS011;3806;52.270;10.544;2022-09-20T07:43:36;8.45;;;4.68;;
7529;SDS011;3806;52.270;10.544;2022-09-20T07:46:01;8.10;;;4.63;;
7529;SDS011;3806;52.270;10.544;2022-09-20T07:48:31;9.88;;;5.40;;
7529;SDS011;3806;52.270;10.544;2022-09-20T07:51:04;10.30;;;4.53;;
7529;SDS011;3806;52.270;10.544;2022-09-20T07:53:31;9.02;;;4.88;;
7529;SDS011;3806;52.270;10.544;2022-09-20T07:56:04;5.93;;;3.85;;
7529;SDS011;3806;52.270;10.544;2022-09-20T07:58:39;8.23;;;3.65;;
7529;SDS011;3806;52.270;10.544;2022-09-20T08:01:07;7.95;;;3.55;;
7529;SDS011;3806;52.270;10.544;2022-09-20T08:03:35;7.15;;;3.67;;
7529;SDS011;3806;52.270;10.544;2022-09-20T08:06:05;9.27;;;3.42;;
7529;SDS011;3806;52.270;10.544;2022-09-20T08:08:33;7.05;;;3.92;;
7529;SDS011;3806;52.270;10.544;2022-09-20T08:11:09;6.28;;;3.45;;
7529;SDS011;3806;52.270;10.544;2022-09-20T08:13:38;6.57;;;3.42;;
7529;SDS011;3806;52.270;10.544;2022-09-20T08:16:06;6.20;;;3.20;;
7529;SDS011;3806;52.270;10.544;2022-09-20T08:18:34;7.70;;;3.15;;
7529;SDS011;3806;52.270;10.544;2022-09-20T08:21:04;6.38;;;3.58;;
7529;SDS011;3806;52.270;10.544;2022-09-20T08:23:34;6.53;;;3.70;;
7529;SDS011;3806;52.270;10.544;2022-09-20T08:26:01;8.98;;;3.25;;
7529;SDS011;3806;52.270;10.544;2022-09-20T08:28:28;7.35;;;3.05;;
7529;SDS011;3806;52.270;10.544;2022-09-20T08:31:05;4.57;;;2.85;;
7529;SDS011;3806;52.270;10.544;2022-09-20T08:33:37;8.60;;;3.40;;
7529;SDS011;3806;52.270;10.544;2022-09-20T08:36:12;6.53;;;3.33;;
7529;SDS011;3806;52.270;10.544;2022-09-20T08:38:42;6.22;;;3.17;;
7529;SDS011;3806;52.270;10.544;2022-09-20T08:41:13;5.25;;;2.67;;
7529;SDS011;3806;52.270;10.544;2022-09-20T08:46:33;3.47;;;2.53;;
7529;SDS011;3806;52.270;10.544;2022-09-20T08:49:03;5.05;;;2.72;;
7529;SDS011;3806;52.270;10.544;2022-09-20T08:51:32;4.57;;;2.40;;
7529;SDS011;3806;52.270;10.544;2022-09-20T08:54:01;8.23;;;3.63;;
7529;SDS011;3806;52.270;10.544;2022-09-20T08:56:31;8.43;;;3.00;;
7529;SDS011;3806;52.270;10.544;2022-09-20T08:59:02;4.00;;;2.80;;
7529;SDS011;3806;52.270;10.544;2022-09-20T09:01:29;5.43;;;2.97;;
7529;SDS011;3806;52.270;10.544;2022-09-20T09:03:58;5.70;;;1.90;;
7529;SDS011;3806;52.270;10.544;2022-09-20T09:06:35;3.83;;;2.10;;
7529;SDS011;3806;52.270;10.544;2022-09-20T09:09:02;3.00;;;2.10;;
7529;SDS011;3806;52.270;10.544;2022-09-20T09:11:28;4.35;;;1.75;;
7529;SDS011;3806;52.270;10.544;2022-09-20T09:16:23;3.45;;;2.08;;
7529;SDS011;3806;52.270;10.544;2022-09-20T09:18:51;4.38;;;2.15;;
7529;SDS011;3806;52.270;10.544;2022-09-20T09:23:45;3.50;;;2.10;;
7529;SDS011;3806;52.270;10.544;2022-09-20T09:26:25;4.13;;;2.25;;
7529;SDS011;3806;52.270;10.544;2022-09-20T09:31:51;2.38;;;1.80;;
7529;SDS011;3806;52.270;10.544;2022-09-20T09:34:24;3.28;;;1.67;;
7529;SDS011;3806;52.270;10.544;2022-09-20T09:36:55;1.92;;;1.63;;
7529;SDS011;3806;52.270;10.544;2022-09-20T09:39:24;1.70;;;1.45;;
7529;SDS011;3806;52.270;10.544;2022-09-20T09:41:52;2.78;;;1.70;;
7529;SDS011;3806;52.270;10.544;2022-09-20T09:44:23;1.98;;;1.30;;
7529;SDS011;3806;52.270;10.544;2022-09-20T09:46:53;3.33;;;1.45;;
7529;SDS011;3806;52.270;10.544;2022-09-20T09:49:21;1.95;;;1.50;;
7529;SDS011;3806;52.270;10.544;2022-09-20T09:54:39;3.55;;;1.40;;
7529;SDS011;3806;52.270;10.544;2022-09-20T10:05:12;2.22;;;1.20;;
7529;SDS011;3806;52.270;10.544;2022-09-20T10:22:20;2.33;;;1.00;;
7529;SDS011;3806;52.270;10.544;2022-09-20T10:30:28;1.75;;;1.08;;
7529;SDS011;3806;52.270;10.544;2022-09-20T10:33:12;2.40;;;1.23;;
7529;SDS011;3806;52.270;10.544;2022-09-20T10:38:24;1.90;;;1.08;;
7529;SDS011;3806;52.270;10.544;2022-09-20T11:00:55;3.25;;;0.90;;
7529;SDS011;3806;52.270;10.544;2022-09-20T11:03:52;1.60;;;0.80;;
7529;SDS011;3806;52.270;10.544;2022-09-20T11:06:39;2.17;;;0.70;;
7529;SDS011;3806;52.270;10.544;2022-09-20T11:09:19;2.08;;;0.73;;
7529;SDS011;3806;52.270;10.544;2022-09-20T11:11:49;1.98;;;0.82;;
7529;SDS011;3806;52.270;10.544;2022-09-20T11:14:31;1.67;;;0.70;;
7529;SDS011;3806;52.270;10.544;2022-09-20T11:17:04;1.33;;;0.63;;
7529;SDS011;3806;52.270;10.544;2022-09-20T11:20:14;2.38;;;0.95;;
7529;SDS011;3806;52.270;10.544;2022-09-20T11:22:44;1.08;;;0.52;;
7529;SDS011;3806;52.270;10.544;2022-09-20T11:25:22;2.05;;;0.60;;
7529;SDS011;3806;52.270;10.544;2022-09-20T11:28:12;1.48;;;0.90;;
7529;SDS011;3806;52.270;10.544;2022-09-20T11:30:52;2.30;;;0.85;;
7529;SDS011;3806;52.270;10.544;2022-09-20T11:33:27;0.90;;;0.80;;
7529;SDS011;3806;52.270;10.544;2022-09-20T11:35:57;1.40;;;0.88;;
7529;SDS011;3806;52.270;10.544;2022-09-20T11:41:26;2.03;;;0.73;;
7529;SDS011;3806;52.270;10.544;2022-09-20T11:43:54;0.60;;;0.50;;
7529;SDS011;3806;52.270;10.544;2022-09-20T11:46:29;0.75;;;0.30;;
7529;SDS011;3806;52.270;10.544;2022-09-20T11:57:25;1.08;;;0.65;;
7529;SDS011;3806;52.270;10.544;2022-09-20T11:59:53;1.65;;;0.93;;
7529;SDS011;3806;52.270;10.544;2022-09-20T12:04:49;1.63;;;0.93;;
7529;SDS011;3806;52.270;10.544;2022-09-20T12:07:24;2.35;;;0.50;;
7529;SDS011;3806;52.270;10.544;2022-09-20T12:09:59;1.70;;;0.55;;
7529;SDS011;3806;52.270;10.544;2022-09-20T12:12:34;1.02;;;0.60;;
7529;SDS011;3806;52.270;10.544;2022-09-20T12:15:45;0.50;;;0.30;;
7529;SDS011;3806;52.270;10.544;2022-09-20T12:26:49;2.58;;;0.30;;
7529;SDS011;3806;52.270;10.544;2022-09-20T12:28:57;2.78;;;0.47;;
7529;SDS011;3806;52.270;10.544;2022-09-20T12:33:56;0.10;;;0.10;;
7529;SDS011;3806;52.270;10.544;2022-09-20T12:36:25;0.93;;;0.40;;
7529;SDS011;3806;52.270;10.544;2022-09-20T12:38:58;1.88;;;0.30;;
7529;SDS011;3806;52.270;10.544;2022-09-20T12:41:24;2.13;;;0.93;;
7529;SDS011;3806;52.270;10.544;2022-09-20T12:43:52;1.73;;;0.93;;
7529;SDS011;3806;52.270;10.544;2022-09-20T12:46:25;1.98;;;0.80;;
7529;SDS011;3806;52.270;10.544;2022-09-20T13:08:42;2.25;;;0.45;;
7529;SDS011;3806;52.270;10.544;2022-09-20T13:19:29;1.15;;;0.40;;
7529;SDS011;3806;52.270;10.544;2022-09-20T13:22:23;0.57;;;0.30;;
7529;SDS011;3806;52.270;10.544;2022-09-20T13:24:55;0.20;;;0.20;;
7529;SDS011;3806;52.270;10.544;2022-09-20T13:27:28;1.52;;;1.00;;
7529;SDS011;3806;52.270;10.544;2022-09-20T13:30:07;1.33;;;0.52;;
7529;SDS011;3806;52.270;10.544;2022-09-20T13:32:44;2.35;;;0.47;;
7529;SDS011;3806;52.270;10.544;2022-09-20T13:35:14;3.38;;;1.52;;
7529;SDS011;3806;52.270;10.544;2022-09-20T13:37:46;1.55;;;0.43;;
7529;SDS011;3806;52.270;10.544;2022-09-20T13:42:48;2.28;;;0.65;;
7529;SDS011;3806;52.270;10.544;2022-09-20T13:45:15;2.28;;;0.63;;
7529;SDS011;3806;52.270;10.544;2022-09-20T13:47:42;3.33;;;0.95;;
7529;SDS011;3806;52.270;10.544;2022-09-20T13:50:15;6.07;;;2.25;;
7529;SDS011;3806;52.270;10.544;2022-09-20T13:52:46;1.02;;;0.50;;
7529;SDS011;3806;52.270;10.544;2022-09-20T13:55:34;1.35;;;0.38;;
7529;SDS011;3806;52.270;10.544;2022-09-20T13:58:24;4.22;;;1.58;;
7529;SDS011;3806;52.270;10.544;2022-09-20T14:00:59;0.75;;;0.43;;
7529;SDS011;3806;52.270;10.544;2022-09-20T14:03:28;1.88;;;0.47;;
7529;SDS011;3806;52.270;10.544;2022-09-20T14:06:00;1.55;;;0.43;;
7529;SDS011;3806;52.270;10.544;2022-09-20T14:08:32;2.72;;;0.32;;
7529;SDS011;3806;52.270;10.544;2022-09-20T14:11:12;2.53;;;0.85;;
7529;SDS011;3806;52.270;10.544;2022-09-20T14:13:45;2.80;;;0.65;;
7529;SDS011;3806;52.270;10.544;2022-09-20T14:16:13;1.85;;;0.60;;
7529;SDS011;3806;52.270;10.544;2022-09-20T14:18:42;1.92;;;0.50;;
7529;SDS011;3806;52.270;10.544;2022-09-20T14:21:11;2.22;;;0.82;;
7529;SDS011;3806;52.270;10.544;2022-09-20T14:23:52;1.67;;;0.50;;
7529;SDS011;3806;52.270;10.544;2022-09-20T14:26:25;4.82;;;1.08;;
7529;SDS011;3806;52.270;10.544;2022-09-20T14:31:54;0.75;;;0.52;;
7529;SDS011;3806;52.270;10.544;2022-09-20T14:34:23;1.77;;;0.75;;
7529;SDS011;3806;52.270;10.544;2022-09-20T14:36:49;1.33;;;0.60;;
7529;SDS011;3806;52.270;10.544;2022-09-20T14:39:15;1.00;;;0.55;;
7529;SDS011;3806;52.270;10.544;2022-09-20T14:41:45;1.65;;;0.35;;
7529;SDS011;3806;52.270;10.544;2022-09-20T14:44:48;2.75;;;0.80;;
7529;SDS011;3806;52.270;10.544;2022-09-20T14:47:13;1.50;;;0.40;;
7529;SDS011;3806;52.270;10.544;2022-09-20T14:54:57;0.52;;;0.32;;
7529;SDS011;3806;52.270;10.544;2022-09-20T14:57:25;0.73;;;0.40;;
7529;SDS011;3806;52.270;10.544;2022-09-20T14:59:55;0.30;;;0.10;;
7529;SDS011;3806;52.270;10.544;2022-09-20T15:02:23;1.05;;;0.38;;
7529;SDS011;3806;52.270;10.544;2022-09-20T15:04:53;0.85;;;0.15;;
7529;SDS011;3806;52.270;10.544;2022-09-20T15:07:23;0.73;;;0.40;;
7529;SDS011;3806;52.270;10.544;2022-09-20T15:09:48;1.65;;;0.43;;
7529;SDS011;3806;52.270;10.544;2022-09-20T15:12:15;1.05;;;0.50;;
7529;SDS011;3806;52.270;10.544;2022-09-20T15:14:43;1.48;;;0.30;;
7529;SDS011;3806;52.270;10.544;2022-09-20T15:17:17;0.68;;;0.40;;
7529;SDS011;3806;52.270;10.544;2022-09-20T15:19:46;0.93;;;0.32;;
7529;SDS011;3806;52.270;10.544;2022-09-20T15:22:13;1.70;;;0.50;;
7529;SDS011;3806;52.270;10.544;2022-09-20T15:24:39;2.92;;;0.63;;
7529;SDS011;3806;52.270;10.544;2022-09-20T15:27:05;1.38;;;0.50;;
7529;SDS011;3806;52.270;10.544;2022-09-20T15:29:31;1.42;;;0.57;;
7529;SDS011;3806;52.270;10.544;2022-09-20T15:31:57;1.65;;;0.70;;
7529;SDS011;3806;52.270;10.544;2022-09-20T15:34:23;2.45;;;0.70;;
7529;SDS011;3806;52.270;10.544;2022-09-20T15:36:49;2.50;;;0.82;;
7529;SDS011;3806;52.270;10.544;2022-09-20T15:39:15;1.83;;;1.00;;
7529;SDS011;3806;52.270;10.544;2022-09-20T15:41:40;2.50;;;0.70;;
7529;SDS011;3806;52.270;10.544;2022-09-20T15:44:09;2.72;;;1.10;;
7529;SDS011;3806;52.270;10.544;2022-09-20T15:46:35;2.38;;;0.65;;
7529;SDS011;3806;52.270;10.544;2022-09-20T15:49:01;1.90;;;0.60;;
7529;SDS011;3806;52.270;10.544;2022-09-20T15:51:31;1.23;;;0.40;;
7529;SDS011;3806;52.270;10.544;2022-09-20T15:53:58;2.83;;;0.50;;
7529;SDS011;3806;52.270;10.544;2022-09-20T15:56:25;1.52;;;0.75;;
7529;SDS011;3806;52.270;10.544;2022-09-20T15:58:54;1.83;;;1.08;;
7529;SDS011;3806;52.270;10.544;2022-09-20T16:01:24;3.20;;;1.17;;
7529;SDS011;3806;52.270;10.544;2022-09-20T16:03:52;3.03;;;0.93;;
7529;SDS011;3806;52.270;10.544;2022-09-20T16:06:18;2.53;;;0.57;;
7529;SDS011;3806;52.270;10.544;2022-09-20T16:08:44;2.88;;;0.73;;
7529;SDS011;3806;52.270;10.544;2022-09-20T16:11:13;2.50;;;0.70;;
7529;SDS011;3806;52.270;10.544;2022-09-20T16:13:41;2.80;;;0.80;;
7529;SDS011;3806;52.270;10.544;2022-09-20T16:16:08;5.15;;;0.95;;
7529;SDS011;3806;52.270;10.544;2022-09-20T16:18:36;1.98;;;1.33;;
7529;SDS011;3806;52.270;10.544;2022-09-20T16:21:21;3.15;;;0.80;;
7529;SDS011;3806;52.270;10.544;2022-09-20T16:23:48;4.78;;;1.02;;
7529;SDS011;3806;52.270;10.544;2022-09-20T16:26:15;3.33;;;1.35;;
7529;SDS011;3806;52.270;10.544;2022-09-20T16:28:42;1.67;;;1.48;;
7529;SDS011;3806;52.270;10.544;2022-09-20T16:31:27;4.72;;;1.73;;
7529;SDS011;3806;52.270;10.544;2022-09-20T16:33:58;3.70;;;1.10;;
7529;SDS011;3806;52.270;10.544;2022-09-20T16:36:29;2.20;;;1.15;;
7529;SDS011;3806;52.270;10.544;2022-09-20T16:38:55;3.13;;;1.25;;
7529;SDS011;3806;52.270;10.544;2022-09-20T16:41:23;4.50;;;1.80;;
7529;SDS011;3806;52.270;10.544;2022-09-20T16:43:50;3.33;;;1.70;;
7529;SDS011;3806;52.270;10.544;2022-09-20T16:46:20;4.07;;;1.83;;
7529;SDS011;3806;52.270;10.544;2022-09-20T16:48:49;6.55;;;1.80;;
7529;SDS011;3806;52.270;10.544;2022-09-20T16:51:17;4.75;;;1.65;;
7529;SDS011;3806;52.270;10.544;2022-09-20T16:53:43;2.85;;;1.33;;
7529;SDS011;3806;52.270;10.544;2022-09-20T16:56:18;4.03;;;1.95;;
7529;SDS011;3806;52.270;10.544;2022-09-20T16:58:45;4.47;;;1.40;;
7529;SDS011;3806;52.270;10.544;2022-09-20T17:01:12;2.75;;;1.50;;
7529;SDS011;3806;52.270;10.544;2022-09-20T17:03:38;3.60;;;1.77;;
7529;SDS011;3806;52.270;10.544;2022-09-20T17:06:05;5.00;;;1.83;;
7529;SDS011;3806;52.270;10.544;2022-09-20T17:08:32;4.25;;;1.63;;
7529;SDS011;3806;52.270;10.544;2022-09-20T17:11:11;4.95;;;2.35;;
7529;SDS011;3806;52.270;10.544;2022-09-20T17:13:39;5.20;;;1.98;;
7529;SDS011;3806;52.270;10.544;2022-09-20T17:16:12;6.20;;;2.42;;
7529;SDS011;3806;52.270;10.544;2022-09-20T17:18:39;5.20;;;1.95;;
7529;SDS011;3806;52.270;10.544;2022-09-20T17:21:14;4.70;;;2.92;;
7529;SDS011;3806;52.270;10.544;2022-09-20T17:23:41;4.30;;;2.50;;
7529;SDS011;3806;52.270;10.544;2022-09-20T17:26:12;8.27;;;2.20;;
7529;SDS011;3806;52.270;10.544;2022-09-20T17:28:42;16.90;;;4.95;;
7529;SDS011;3806;52.270;10.544;2022-09-20T17:31:10;14.38;;;5.53;;
7529;SDS011;3806;52.270;10.544;2022-09-20T17:33:38;56.25;;;19.98;;
7529;SDS011;3806;52.270;10.544;2022-09-20T17:36:04;11.98;;;5.68;;
7529;SDS011;3806;52.270;10.544;2022-09-20T17:38:31;19.33;;;6.57;;
7529;SDS011;3806;52.270;10.544;2022-09-20T17:40:59;17.45;;;7.43;;
7529;SDS011;3806;52.270;10.544;2022-09-20T17:43:26;17.40;;;7.43;;
7529;SDS011;3806;52.270;10.544;2022-09-20T17:45:53;14.82;;;5.45;;
7529;SDS011;3806;52.270;10.544;2022-09-20T17:48:20;12.45;;;5.20;;
7529;SDS011;3806;52.270;10.544;2022-09-20T17:50:54;12.27;;;6.10;;
7529;SDS011;3806;52.270;10.544;2022-09-20T17:53:20;9.88;;;5.20;;
7529;SDS011;3806;52.270;10.544;2022-09-20T17:55:52;8.05;;;3.85;;
7529;SDS011;3806;52.270;10.544;2022-09-20T17:58:18;11.63;;;4.15;;
7529;SDS011;3806;52.270;10.544;2022-09-20T18:00:44;6.30;;;3.72;;
7529;SDS011;3806;52.270;10.544;2022-09-20T18:03:10;4.72;;;3.03;;
7529;SDS011;3806;52.270;10.544;2022-09-20T18:05:35;5.38;;;3.03;;
7529;SDS011;3806;52.270;10.544;2022-09-20T18:08:01;4.90;;;2.85;;
7529;SDS011;3806;52.270;10.544;2022-09-20T18:10:28;6.30;;;2.83;;
7529;SDS011;3806;52.270;10.544;2022-09-20T18:12:54;4.00;;;2.40;;
7529;SDS011;3806;52.270;10.544;2022-09-20T18:15:20;4.38;;;2.55;;
7529;SDS011;3806;52.270;10.544;2022-09-20T18:17:47;4.13;;;2.83;;
7529;SDS011;3806;52.270;10.544;2022-09-20T18:20:12;6.72;;;2.72;;
7529;SDS011;3806;52.270;10.544;2022-09-20T18:22:38;5.22;;;2.35;;
7529;SDS011;3806;52.270;10.544;2022-09-20T18:25:04;4.38;;;2.25;;
7529;SDS011;3806;52.270;10.544;2022-09-20T18:27:30;2.90;;;1.95;;
7529;SDS011;3806;52.270;10.544;2022-09-20T18:29:58;3.55;;;2.13;;
7529;SDS011;3806;52.270;10.544;2022-09-20T18:32:24;4.53;;;2.25;;
7529;SDS011;3806;52.270;10.544;2022-09-20T18:34:50;4.28;;;2.47;;
7529;SDS011;3806;52.270;10.544;2022-09-20T18:37:16;4.60;;;2.00;;
7529;SDS011;3806;52.270;10.544;2022-09-20T18:39:42;4.38;;;2.22;;
7529;SDS011;3806;52.270;10.544;2022-09-20T18:42:07;6.05;;;2.25;;
7529;SDS011;3806;52.270;10.544;2022-09-20T18:44:34;4.97;;;2.38;;
7529;SDS011;3806;52.270;10.544;2022-09-20T18:47:00;7.25;;;2.25;;
7529;SDS011;3806;52.270;10.544;2022-09-20T18:49:27;6.45;;;2.80;;
7529;SDS011;3806;52.270;10.544;2022-09-20T18:51:54;8.40;;;4.05;;
7529;SDS011;3806;52.270;10.544;2022-09-20T18:54:21;4.68;;;2.30;;
7529;SDS011;3806;52.270;10.544;2022-09-20T18:56:47;3.83;;;2.17;;
7529;SDS011;3806;52.270;10.544;2022-09-20T18:59:15;4.00;;;1.90;;
7529;SDS011;3806;52.270;10.544;2022-09-20T19:13:55;5.50;;;2.17;;
7529;SDS011;3806;52.270;10.544;2022-09-20T19:27:17;3.63;;;1.90;;
7529;SDS011;3806;52.270;10.544;2022-09-20T19:29:55;4.95;;;1.80;;
7529;SDS011;3806;52.270;10.544;2022-09-20T19:32:21;3.58;;;1.75;;
7529;SDS011;3806;52.270;10.544;2022-09-20T19:34:50;4.63;;;2.22;;
7529;SDS011;3806;52.270;10.544;2022-09-20T19:37:24;5.05;;;2.25;;
7529;SDS011;3806;52.270;10.544;2022-09-20T19:40:14;2.63;;;1.92;;
7529;SDS011;3806;52.270;10.544;2022-09-20T19:51:11;2.92;;;1.88;;
7529;SDS011;3806;52.270;10.544;2022-09-20T19:53:40;3.95;;;2.28;;
7529;SDS011;3806;52.270;10.544;2022-09-20T19:56:22;7.18;;;2.08;;
7529;SDS011;3806;52.270;10.544;2022-09-20T19:58:53;4.30;;;3.15;;
7529;SDS011;3806;52.270;10.544;2022-09-20T20:01:23;4.85;;;2.35;;
7529;SDS011;3806;52.270;10.544;2022-09-20T20:03:53;3.35;;;1.88;;
7529;SDS011;3806;52.270;10.544;2022-09-20T20:14:23;4.50;;;2.08;;
7529;SDS011;3806;52.270;10.544;2022-09-20T20:19:33;3.45;;;2.17;;
7529;SDS011;3806;52.270;10.544;2022-09-20T20:25:27;5.53;;;2.57;;
7529;SDS011;3806;52.270;10.544;2022-09-20T20:28:12;2.50;;;2.20;;
7529;SDS011;3806;52.270;10.544;2022-09-20T20:30:38;3.85;;;2.47;;
7529;SDS011;3806;52.270;10.544;2022-09-20T20:33:04;7.40;;;2.47;;
7529;SDS011;3806;52.270;10.544;2022-09-20T20:35:30;3.45;;;2.25;;
7529;SDS011;3806;52.270;10.544;2022-09-20T20:37:56;4.63;;;2.53;;
7529;SDS011;3806;52.270;10.544;2022-09-20T20:40:22;9.18;;;3.97;;
7529;SDS011;3806;52.270;10.544;2022-09-20T20:42:48;6.03;;;3.42;;
7529;SDS011;3806;52.270;10.544;2022-09-20T20:45:25;6.25;;;2.22;;
7529;SDS011;3806;52.270;10.544;2022-09-20T20:47:55;4.65;;;2.60;;
7529;SDS011;3806;52.270;10.544;2022-09-20T20:50:22;4.20;;;2.40;;
7529;SDS011;3806;52.270;10.544;2022-09-20T20:52:52;4.93;;;2.85;;
7529;SDS011;3806;52.270;10.544;2022-09-20T20:55:19;3.35;;;2.30;;
7529;SDS011;3806;52.270;10.544;2022-09-20T20:57:52;5.00;;;2.60;;
7529;SDS011;3806;52.270;10.544;2022-09-20T21:00:25;3.05;;;2.08;;
7529;SDS011;3806;52.270;10.544;2022-09-20T21:02:55;5.97;;;2.90;;
7529;SDS011;3806;52.270;10.544;2022-09-20T21:05:22;4.13;;;2.58;;
7529;SDS011;3806;52.270;10.544;2022-09-20T21:07:49;3.50;;;2.13;;
7529;SDS011;3806;52.270;10.544;2022-09-20T21:10:16;4.93;;;2.08;;
7529;SDS011;3806;52.270;10.544;2022-09-20T21:12:41;2.75;;;2.28;;
7529;SDS011;3806;52.270;10.544;2022-09-20T21:15:07;3.50;;;2.28;;